Time;durP1;ratioP1;P1;durP2;ratioP2;P2;SDS_P1;SDS_P2;PMS_P1;PMS_P2;Temp;Humidity;BMP_temperature;BMP_pressure;BME280_temperature;BME280_humidity;BME280_pressure;Samples;Min_cycle;Max_cycle;Signal;HPM_P1;HPM_P2
2022/07/11 00:01:09;;;;;;;8.82;5.70;;;;;;;16.82;78.97;102339.31;5047079;28;20623;-77
2022/07/11 00:03:35;;;;;;;10.10;5.65;;;;;;;16.78;79.42;102340.53;5043003;28;20037;-78
2022/07/11 00:06:01;;;;;;;8.80;5.03;;;;;;;16.73;80.40;102332.22;5047249;28;20104;-78
2022/07/11 00:08:26;;;;;;;9.93;5.93;;;;;;;16.69;79.48;102317.72;5043745;28;20447;-78
2022/07/11 00:10:51;;;;;;;10.73;5.68;;;;;;;16.76;80.38;102337.22;5046247;28;20400;-77
2022/07/11 00:13:17;;;;;;;11.18;6.40;;;;;;;16.81;80.09;102329.81;5033434;28;20469;-78
2022/07/11 00:15:42;;;;;;;11.25;6.70;;;;;;;16.78;79.92;102335.28;5036407;28;20029;-77
2022/07/11 00:18:07;;;;;;;11.38;7.30;;;;;;;16.77;80.38;102333.63;5038092;28;20108;-77
2022/07/11 00:20:33;;;;;;;11.90;7.85;;;;;;;16.79;80.49;102341.34;5036007;28;20032;-78
2022/07/11 00:22:58;;;;;;;10.27;8.10;;;;;;;16.58;81.42;102323.84;5043559;28;20032;-78
2022/07/11 00:25:24;;;;;;;11.15;8.52;;;;;;;16.68;81.23;102316.03;5046851;28;20143;-77
2022/07/11 00:27:49;;;;;;;13.38;9.05;;;;;;;16.71;80.71;102323.66;5034473;28;20537;-78
2022/07/11 00:30:16;;;;;;;11.68;9.38;;;;;;;16.72;80.95;102330.56;5045493;28;20032;-78
2022/07/11 00:32:42;;;;;;;11.82;9.65;;;;;;;16.66;81.67;102331.06;5043272;28;20032;-77
2022/07/11 00:35:07;;;;;;;14.43;10.45;;;;;;;16.61;81.76;102327.97;5045654;28;20036;-77
2022/07/11 00:37:33;;;;;;;14.50;9.77;;;;;;;16.71;81.35;102331.53;5035698;28;20517;-78
2022/07/11 00:39:59;;;;;;;12.75;10.23;;;;;;;16.75;81.26;102330.31;5043880;28;20567;-78
2022/07/11 00:42:25;;;;;;;13.60;10.32;;;;;;;16.78;80.55;102330.06;5046915;28;20025;-78
2022/07/11 00:44:50;;;;;;;14.23;10.77;;;;;;;16.62;81.66;102329.63;5033878;28;20509;-78
2022/07/11 00:47:15;;;;;;;14.30;11.18;;;;;;;16.53;81.95;102319.94;5044033;28;20021;-78
2022/07/11 00:49:41;;;;;;;14.57;11.75;;;;;;;16.60;81.43;102315.84;5044096;28;20041;-78
2022/07/11 00:52:08;;;;;;;12.65;10.75;;;;;;;16.65;82.11;102329.41;5046552;28;20031;-79
2022/07/11 00:54:34;;;;;;;12.90;11.30;;;;;;;16.52;82.76;102328.75;5046154;28;20042;-77
2022/07/11 00:56:59;;;;;;;14.10;11.60;;;;;;;16.65;82.25;102326.78;5042431;28;20020;-79
2022/07/11 00:59:25;;;;;;;15.60;11.73;;;;;;;16.53;82.42;102320.78;5046083;28;20058;-77
2022/07/11 01:01:51;;;;;;;12.88;11.50;;;;;;;16.62;81.92;102314.75;5044738;28;20120;-78
2022/07/11 01:04:16;;;;;;;12.45;11.13;;;;;;;16.66;82.01;102325.81;5046563;28;20130;-80
2022/07/11 01:06:42;;;;;;;14.82;12.05;;;;;;;16.60;82.90;102326.31;5049143;28;20377;-78
2022/07/11 01:09:07;;;;;;;14.07;11.20;;;;;;;16.65;81.48;102309.25;5045552;28;20029;-78
2022/07/11 01:11:33;;;;;;;12.23;10.80;;;;;;;16.70;82.35;102324.59;5045755;28;20414;-78
2022/07/11 01:13:58;;;;;;;14.48;11.25;;;;;;;16.66;82.06;102323.19;5046308;28;20496;-77
2022/07/11 01:16:24;;;;;;;13.48;10.38;;;;;;;16.57;82.33;102310.84;5036338;28;20371;-79
2022/07/11 01:18:54;;;;;;;13.10;10.82;;;;;;;16.71;82.03;102329.75;5052315;28;20132;-78
2022/07/11 01:21:30;;;;;;;14.55;10.85;;;;;;;16.69;82.53;102321.16;5048976;28;20025;-78
2022/07/11 01:24:00;;;;;;;15.20;11.35;;;;;;;16.67;82.14;102319.59;5049176;28;20433;-77
2022/07/11 01:26:26;;;;;;;11.80;10.48;;;;;;;16.72;82.78;102320.09;5046191;28;20025;-78
2022/07/11 01:28:52;;;;;;;14.05;10.38;;;;;;;16.59;82.53;102311.56;5044204;28;20021;-77
2022/07/11 01:31:19;;;;;;;12.68;10.23;;;;;;;16.48;82.99;102322.09;5048521;28;20055;-78
2022/07/11 01:33:45;;;;;;;14.75;10.02;;;;;;;16.53;83.07;102312.09;5048390;28;20048;-78
2022/07/11 01:36:12;;;;;;;14.27;9.95;;;;;;;16.48;83.53;102316.88;5048346;28;20029;-78
2022/07/11 01:38:37;;;;;;;13.98;9.55;;;;;;;16.40;83.44;102326.19;5042501;28;20029;-78
2022/07/11 01:41:03;;;;;;;11.23;9.30;;;;;;;16.45;83.38;102302.22;5041738;28;20384;-80
2022/07/11 01:43:28;;;;;;;12.35;9.40;;;;;;;16.44;83.53;102308.44;5049053;28;20032;-79
2022/07/11 01:45:55;;;;;;;13.15;9.30;;;;;;;16.39;83.88;102303.56;5049243;28;20036;-78
2022/07/11 01:48:21;;;;;;;13.55;9.40;;;;;;;16.52;82.71;102311.25;5045654;28;20075;-77
2022/07/11 01:50:47;;;;;;;10.85;8.77;;;;;;;16.47;83.27;102321.28;5049764;28;20025;-77
2022/07/11 01:53:13;;;;;;;14.63;9.27;;;;;;;16.54;83.25;102321.59;5047471;28;20063;-77
2022/07/11 01:55:39;;;;;;;11.98;8.35;;;;;;;16.51;83.01;102311.34;5046546;28;20473;-80
2022/07/11 01:58:04;;;;;;;11.00;7.63;;;;;;;16.42;83.60;102324.28;5034111;28;20049;-78
2022/07/11 02:00:30;;;;;;;12.23;8.05;;;;;;;16.47;83.58;102316.03;5039036;28;20036;-78
2022/07/11 02:02:56;;;;;;;13.43;8.35;;;;;;;16.50;83.51;102320.19;5063921;28;20036;-78
2022/07/11 02:05:21;;;;;;;12.43;8.43;;;;;;;16.40;83.37;102320.97;5035532;28;20048;-78
2022/07/11 02:10:30;;;;;;;12.98;7.80;;;;;;;16.33;83.43;102306.69;5047365;28;20032;-78
2022/07/11 02:12:58;;;;;;;13.30;8.15;;;;;;;16.36;84.08;102319.53;5044336;28;20025;-77
2022/07/11 02:15:24;;;;;;;11.20;7.88;;;;;;;16.30;83.98;102314.81;5045406;28;20057;-77
2022/07/11 02:17:49;;;;;;;13.57;8.20;;;;;;;16.34;84.08;102316.19;5045930;28;20013;-78
2022/07/11 02:20:15;;;;;;;12.63;8.18;;;;;;;16.35;84.21;102330.16;5048404;28;20048;-78
2022/07/11 02:22:40;;;;;;;11.43;7.63;;;;;;;16.40;83.77;102320.97;5047859;28;20029;-78
2022/07/11 02:25:06;;;;;;;11.65;7.78;;;;;;;16.36;84.37;102309.06;5043993;28;20037;-79
2022/07/11 02:27:31;;;;;;;12.10;6.95;;;;;;;16.35;83.82;102307.41;5045731;28;20036;-77
2022/07/11 02:29:57;;;;;;;16.20;7.85;;;;;;;16.36;83.92;102318.72;5048521;28;20016;-79
2022/07/11 02:32:22;;;;;;;10.85;6.55;;;;;;;16.44;83.88;102313.66;5038466;28;20029;-78
2022/07/11 02:34:47;;;;;;;13.10;6.93;;;;;;;16.39;84.33;102324.50;5061191;28;20029;-77
2022/07/11 02:37:12;;;;;;;10.07;6.47;;;;;;;16.28;83.79;102290.53;5048546;28;20054;-78
2022/07/11 02:39:38;;;;;;;10.50;6.63;;;;;;;16.35;83.86;102296.94;5045014;28;20606;-78
2022/07/11 02:42:04;;;;;;;10.18;6.30;;;;;;;16.39;84.34;102303.56;5047021;28;20116;-77
2022/07/11 02:44:29;;;;;;;11.65;6.30;;;;;;;16.37;84.71;102310.72;5039248;28;20033;-77
2022/07/11 02:46:54;;;;;;;11.00;5.80;;;;;;;16.33;84.12;102309.31;5044732;28;20021;-78
2022/07/11 02:49:20;;;;;;;10.15;5.68;;;;;;;16.37;84.07;102302.88;5042238;28;20036;-78
2022/07/11 02:51:46;;;;;;;10.40;5.70;;;;;;;16.26;84.67;102305.53;5044937;28;20417;-78
2022/07/11 02:54:12;;;;;;;10.07;5.88;;;;;;;16.27;85.32;102304.56;5042537;28;20531;-77
2022/07/11 02:56:37;;;;;;;11.52;5.20;;;;;;;16.34;84.42;102300.50;5043360;28;20024;-78
2022/07/11 02:59:02;;;;;;;10.20;5.05;;;;;;;16.33;84.43;102296.22;5046222;28;20091;-78
2022/07/11 03:01:28;;;;;;;10.20;5.28;;;;;;;16.44;84.01;102295.34;5044666;28;20036;-78
2022/07/11 03:03:53;;;;;;;9.45;5.00;;;;;;;16.36;84.59;102303.84;5045881;28;20025;-78
2022/07/11 03:06:18;;;;;;;9.20;4.70;;;;;;;16.41;84.33;102300.84;5047567;28;20067;-78
2022/07/11 03:08:44;;;;;;;9.35;4.72;;;;;;;16.43;83.79;102299.75;5047413;28;20060;-78
2022/07/11 03:11:09;;;;;;;9.60;4.45;;;;;;;16.35;84.38;102302.19;5046650;28;20481;-78
2022/07/11 03:13:35;;;;;;;6.55;3.80;;;;;;;16.35;84.14;102302.19;5045368;28;20033;-78
2022/07/11 03:16:01;;;;;;;9.30;3.80;;;;;;;16.36;84.29;102319.53;5035654;28;20028;-77
2022/07/11 03:18:27;;;;;;;8.98;3.53;;;;;;;16.36;84.46;102319.53;5040303;28;20559;-77
2022/07/11 03:20:53;;;;;;;6.75;3.45;;;;;;;16.39;84.15;102319.28;5043011;28;20519;-78
2022/07/11 03:23:18;;;;;;;6.60;3.15;;;;;;;16.31;84.19;102318.25;5045605;28;20025;-78
2022/07/11 03:25:44;;;;;;;6.13;3.00;;;;;;;16.35;84.21;102317.88;5034748;28;20029;-77
2022/07/11 03:28:09;;;;;;;7.18;3.47;;;;;;;16.33;84.43;102325.00;5043777;28;20025;-78
2022/07/11 03:30:34;;;;;;;6.63;3.05;;;;;;;16.26;84.00;102318.63;5040689;28;20039;-78
2022/07/11 03:33:00;;;;;;;7.75;3.10;;;;;;;16.31;84.01;102320.88;5045657;28;20132;-77
2022/07/11 03:35:40;;;;;;;6.65;3.40;;;;;;;16.24;84.85;102320.56;5046548;28;20116;-78
2022/07/11 03:38:06;;;;;;;9.10;3.03;;;;;;;16.14;84.77;102303.94;5045404;28;20025;-78
2022/07/11 03:40:32;;;;;;;8.55;3.60;;;;;;;16.25;84.16;102303.88;5037932;28;20025;-78
2022/07/11 03:42:57;;;;;;;7.88;3.58;;;;;;;16.32;84.58;102315.50;5042179;28;20477;-76
2022/07/11 03:45:22;;;;;;;8.20;3.42;;;;;;;16.36;84.14;102324.78;5040860;28;20231;-78
2022/07/11 03:47:48;;;;;;;7.13;3.00;;;;;;;16.37;84.37;102331.66;5041861;28;20029;-80
2022/07/11 03:50:14;;;;;;;8.27;3.00;;;;;;;16.36;84.58;102335.25;5044694;28;20052;-79
2022/07/11 03:52:40;;;;;;;4.50;2.30;;;;;;;16.32;84.04;102328.59;5045381;28;20111;-83
2022/07/11 03:55:05;;;;;;;7.22;2.90;;;;;;;16.23;83.81;102318.91;5041176;28;20124;-79
2022/07/11 03:57:31;;;;;;;5.78;2.70;;;;;;;16.25;84.45;102332.69;5044308;28;20113;-77
2022/07/11 03:59:56;;;;;;;7.55;2.78;;;;;;;16.18;84.91;102321.06;5044846;28;20040;-77
2022/07/11 04:02:21;;;;;;;6.20;2.28;;;;;;;16.24;84.42;102324.97;5044558;28;20108;-77
2022/07/11 04:04:47;;;;;;;7.60;2.95;;;;;;;16.30;84.24;102330.53;5036570;28;20064;-77
2022/07/11 04:07:13;;;;;;;7.25;2.80;;;;;;;16.20;84.93;102327.00;5047566;28;20540;-77
2022/07/11 04:09:38;;;;;;;6.28;2.60;;;;;;;16.27;84.45;102325.53;5041285;28;20041;-78
2022/07/11 04:12:04;;;;;;;5.78;2.53;;;;;;;16.25;84.87;102332.69;5045655;28;20028;-80
2022/07/11 04:14:29;;;;;;;6.65;2.30;;;;;;;16.24;84.37;102331.03;5043285;28;20025;-77
2022/07/11 04:16:55;;;;;;;7.97;2.45;;;;;;;16.08;85.43;102314.91;5036556;28;20531;-78
2022/07/11 04:19:20;;;;;;;6.28;2.50;;;;;;;16.11;85.05;102325.09;5046018;28;20469;-78
2022/07/11 04:21:46;;;;;;;6.75;2.33;;;;;;;16.14;85.30;102330.09;5038351;28;20034;-78
2022/07/11 04:24:11;;;;;;;5.47;2.20;;;;;;;16.03;85.08;102317.06;5043582;28;20516;-77
2022/07/11 04:26:36;;;;;;;4.82;2.20;;;;;;;16.06;85.15;102314.22;5040272;28;20020;-77
2022/07/11 04:29:04;;;;;;;7.15;2.38;;;;;;;16.07;85.51;102328.94;5046094;28;20039;-77
2022/07/11 04:31:30;;;;;;;4.07;2.40;;;;;;;16.04;86.33;102329.19;5044533;28;20355;-77
2022/07/11 04:33:55;;;;;;;6.53;2.60;;;;;;;16.07;86.25;102335.00;5045077;28;20375;-79
2022/07/11 04:36:20;;;;;;;7.97;2.67;;;;;;;15.96;86.70;102321.97;5045197;28;20029;-77
2022/07/11 04:38:46;;;;;;;6.53;2.80;;;;;;;15.97;87.28;102322.78;5042464;28;20023;-77
2022/07/11 04:41:11;;;;;;;8.07;2.90;;;;;;;15.95;86.94;102329.94;5036018;28;20056;-78
2022/07/11 04:43:37;;;;;;;8.50;3.40;;;;;;;15.87;87.45;102323.50;5043406;28;20028;-79
2022/07/11 04:46:04;;;;;;;6.72;2.60;;;;;;;15.97;87.62;102333.25;5044614;28;20511;-77
2022/07/11 04:48:30;;;;;;;6.20;2.67;;;;;;;16.01;88.01;102339.91;5043723;28;20028;-77
2022/07/11 04:50:56;;;;;;;8.30;2.85;;;;;;;15.89;88.31;102337.31;5040826;28;20036;-77
2022/07/11 04:53:21;;;;;;;7.45;2.58;;;;;;;15.95;88.39;102329.94;5031110;28;20033;-77
2022/07/11 04:55:46;;;;;;;4.78;2.67;;;;;;;15.95;88.66;102340.41;5042056;28;20033;-77
2022/07/11 04:58:12;;;;;;;5.82;2.58;;;;;;;15.95;88.28;102336.00;5039795;28;20424;-77
2022/07/11 05:00:37;;;;;;;5.32;2.50;;;;;;;16.04;88.14;102334.41;5040211;28;20021;-79
2022/07/11 05:03:03;;;;;;;5.88;2.50;;;;;;;16.04;88.22;102339.66;5045457;28;20047;-78
2022/07/11 05:05:28;;;;;;;6.40;2.75;;;;;;;16.00;88.19;102339.09;5043483;28;20476;-78
2022/07/11 05:07:54;;;;;;;5.72;2.65;;;;;;;15.98;87.86;102327.06;5041538;28;20571;-78
2022/07/11 05:10:19;;;;;;;6.72;2.72;;;;;;;16.02;88.05;102336.34;5044215;28;20522;-77
2022/07/11 05:12:45;;;;;;;9.25;3.05;;;;;;;15.98;88.58;102340.16;5045932;28;20120;-78
2022/07/11 05:15:10;;;;;;;7.13;2.83;;;;;;;16.04;88.12;102347.50;5041880;28;20354;-77
2022/07/11 05:17:36;;;;;;;5.90;2.75;;;;;;;15.96;88.49;102336.84;5048244;28;20036;-77
2022/07/11 05:20:02;;;;;;;5.47;3.03;;;;;;;15.99;88.77;102347.03;5041191;28;20323;-77
2022/07/11 05:22:27;;;;;;;7.55;2.95;;;;;;;15.93;89.05;102343.13;5040612;28;20021;-77
2022/07/11 05:24:53;;;;;;;6.45;3.03;;;;;;;15.95;89.00;102343.03;5036130;28;20462;-78
2022/07/11 05:27:18;;;;;;;8.70;3.33;;;;;;;15.98;89.10;102358.47;5043716;28;20025;-78
2022/07/11 05:29:44;;;;;;;7.03;3.30;;;;;;;15.96;89.71;102357.75;5044952;28;20071;-78
2022/07/11 05:32:09;;;;;;;5.65;3.60;;;;;;;15.89;89.74;102347.78;5040417;28;20029;-78
2022/07/11 05:34:35;;;;;;;7.50;3.50;;;;;;;15.96;89.87;102363.00;5044135;28;20060;-78
2022/07/11 05:37:00;;;;;;;5.97;3.70;;;;;;;15.86;90.41;102352.44;5042062;28;20075;-78
2022/07/11 05:39:26;;;;;;;6.28;3.50;;;;;;;16.02;90.14;102367.75;5049916;28;20029;-77
2022/07/11 05:41:51;;;;;;;6.43;3.90;;;;;;;15.90;90.04;102356.47;5045214;28;20033;-78
2022/07/11 05:44:19;;;;;;;7.43;3.90;;;;;;;15.87;89.88;102360.16;5039618;28;20442;-77
2022/07/11 05:46:45;;;;;;;7.38;3.65;;;;;;;15.87;89.90;102352.28;5049273;28;20104;-78
2022/07/11 05:49:12;;;;;;;6.63;3.50;;;;;;;15.86;89.96;102374.19;5043380;28;20111;-77
2022/07/11 05:51:38;;;;;;;7.55;3.75;;;;;;;15.84;90.17;102370.88;5042515;28;20028;-78
2022/07/11 05:54:04;;;;;;;5.38;3.63;;;;;;;15.89;90.17;102379.19;5044964;28;20032;-77
2022/07/11 05:56:29;;;;;;;4.93;3.47;;;;;;;15.85;90.23;102372.53;5044766;28;20457;-77
2022/07/11 05:58:56;;;;;;;5.65;3.60;;;;;;;15.90;90.10;102382.63;5046346;28;20415;-77
2022/07/11 06:01:22;;;;;;;8.40;4.07;;;;;;;15.90;90.02;102378.22;5048817;28;20072;-78
2022/07/11 06:03:48;;;;;;;7.68;4.20;;;;;;;15.87;90.19;102369.78;5047722;28;20025;-78
2022/07/11 06:06:13;;;;;;;7.38;4.43;;;;;;;15.88;90.12;102387.97;5045210;28;20421;-78
2022/07/11 06:08:41;;;;;;;5.28;4.00;;;;;;;15.94;89.77;102386.66;5045181;28;20033;-78
2022/07/11 06:11:12;;;;;;;7.38;4.22;;;;;;;15.82;90.03;102372.75;5048046;28;20048;-80
2022/07/11 06:13:41;;;;;;;4.72;3.50;;;;;;;15.91;90.33;102379.06;5049652;28;20052;-77
2022/07/11 06:16:08;;;;;;;5.70;3.63;;;;;;;16.03;90.66;102379.88;5044596;28;20029;-77
2022/07/11 06:18:35;;;;;;;6.72;3.78;;;;;;;16.13;89.55;102386.03;5046926;28;20048;-77
2022/07/11 06:21:00;;;;;;;5.43;3.33;;;;;;;16.06;89.05;102384.88;5052892;28;20028;-78
2022/07/11 06:23:26;;;;;;;5.78;3.15;;;;;;;15.96;89.23;102374.31;5046355;28;20530;-77
2022/07/11 06:25:51;;;;;;;6.40;3.08;;;;;;;16.06;89.69;102374.41;5051934;28;20503;-76
2022/07/11 06:28:16;;;;;;;4.78;3.17;;;;;;;16.05;89.45;102383.19;5040127;28;20060;-78
2022/07/11 06:30:42;;;;;;;5.10;3.30;;;;;;;16.03;89.32;102390.34;5042118;28;20487;-80
2022/07/11 06:33:07;;;;;;;4.55;3.25;;;;;;;15.97;88.96;102388.22;5044163;28;20040;-77
2022/07/11 06:35:34;;;;;;;4.90;3.20;;;;;;;15.92;89.56;102384.16;5049134;28;20451;-78
2022/07/11 06:37:59;;;;;;;5.80;2.78;;;;;;;15.92;89.29;102373.69;5052852;28;20027;-76
2022/07/11 06:40:25;;;;;;;8.15;2.95;;;;;;;15.97;90.09;102381.19;5043269;28;20024;-77
2022/07/11 06:42:51;;;;;;;5.85;2.85;;;;;;;16.05;90.56;102375.34;5045971;28;20135;-77
2022/07/11 06:45:17;;;;;;;5.03;2.90;;;;;;;16.17;89.83;102374.34;5044187;28;20132;-78
2022/07/11 06:47:42;;;;;;;4.28;3.00;;;;;;;16.17;89.26;102371.72;5042177;28;20021;-76
2022/07/11 06:50:08;;;;;;;4.57;2.78;;;;;;;16.18;88.23;102373.41;5043656;28;20028;-77
2022/07/11 06:52:34;;;;;;;7.13;3.00;;;;;;;16.20;88.54;102371.50;5047881;28;20044;-76
2022/07/11 06:54:59;;;;;;;5.40;2.78;;;;;;;16.25;88.28;102379.81;5032644;28;20457;-77
2022/07/11 06:57:25;;;;;;;3.38;2.78;;;;;;;16.17;87.69;102366.50;5041471;28;20052;-78
2022/07/11 06:59:50;;;;;;;4.55;2.80;;;;;;;16.31;88.99;102368.00;5055714;28;20499;-77
2022/07/11 07:02:16;;;;;;;5.95;3.22;;;;;;;16.40;88.30;102370.72;5044899;28;20052;-77
2022/07/11 07:04:41;;;;;;;4.47;3.05;;;;;;;16.44;88.69;102364.25;5044873;28;20036;-77
2022/07/11 07:07:07;;;;;;;4.75;2.97;;;;;;;16.55;88.15;102370.41;5040061;28;20052;-76
2022/07/11 07:09:33;;;;;;;5.07;2.70;;;;;;;16.57;87.46;102371.09;5039768;28;20234;-77
2022/07/11 07:11:59;;;;;;;4.45;2.80;;;;;;;16.66;87.43;102367.72;5041609;28;20048;-77
2022/07/11 07:14:25;;;;;;;4.03;2.75;;;;;;;16.60;86.46;102347.28;5057039;28;20468;-77
2022/07/11 07:16:50;;;;;;;3.28;2.35;;;;;;;16.70;86.62;102350.81;5038631;28;20599;-78
2022/07/11 07:19:15;;;;;;;3.22;2.40;;;;;;;16.84;86.22;102357.53;5042693;28;20373;-78
2022/07/11 07:21:41;;;;;;;3.10;1.80;;;;;;;16.92;85.00;102358.56;5045033;28;21068;-77
2022/07/11 07:24:06;;;;;;;2.22;1.70;;;;;;;16.87;84.86;102350.25;5046216;28;20029;-76
2022/07/11 07:26:32;;;;;;;2.80;1.58;;;;;;;17.03;84.91;102359.41;5041740;28;20049;-78
2022/07/11 07:28:59;;;;;;;4.68;2.00;;;;;;;17.01;83.78;102361.34;5043280;28;20024;-77
2022/07/11 07:31:24;;;;;;;3.50;1.90;;;;;;;16.91;83.44;102351.63;5042641;28;20025;-77
2022/07/11 07:33:50;;;;;;;3.65;1.60;;;;;;;17.07;83.72;102360.84;5039318;28;20071;-77
2022/07/11 07:36:16;;;;;;;2.53;1.65;;;;;;;17.11;83.67;102373.56;5038692;28;20039;-78
2022/07/11 07:38:47;;;;;;;2.95;1.40;;;;;;;17.16;83.46;102379.25;5041438;28;20479;-77
2022/07/11 07:41:14;;;;;;;2.28;1.60;;;;;;;17.14;82.01;102378.53;5041232;28;20036;-76
2022/07/11 07:43:41;;;;;;;3.22;1.50;;;;;;;17.18;83.19;102368.63;5039811;28;20361;-77
2022/07/11 07:46:08;;;;;;;1.52;1.00;;;;;;;17.12;80.63;102374.38;5035185;28;20405;-76
2022/07/11 07:48:33;;;;;;;1.25;0.95;;;;;;;17.09;80.90;102365.00;5043340;28;20142;-78
2022/07/11 07:50:59;;;;;;;1.00;0.90;;;;;;;17.20;80.79;102374.56;5044663;28;20032;-77
2022/07/11 07:53:24;;;;;;;1.30;0.90;;;;;;;17.26;80.23;102381.91;5046029;28;20029;-77
2022/07/11 07:55:49;;;;;;;1.70;0.85;;;;;;;17.21;79.10;102374.44;5039811;28;20029;-76
2022/07/11 07:58:15;;;;;;;0.88;0.80;;;;;;;17.28;78.84;102374.75;5034934;28;20056;-76
2022/07/11 08:03:24;;;;;;;0.95;0.70;;;;;;;17.16;80.21;102368.75;5045676;28;20051;-76
2022/07/11 08:05:49;;;;;;;1.42;0.70;;;;;;;17.30;79.54;102387.72;5040990;28;20025;-76
2022/07/11 08:08:15;;;;;;;1.10;0.70;;;;;;;17.24;79.73;102373.34;5043695;28;20033;-76
2022/07/11 08:10:40;;;;;;;1.55;0.90;;;;;;;17.33;78.98;102393.53;5045359;28;20025;-76
2022/07/11 08:13:05;;;;;;;1.20;0.70;;;;;;;17.28;78.70;102385.25;5042540;28;20037;-76
2022/07/11 08:15:31;;;;;;;0.80;0.80;;;;;;;17.40;78.33;102391.22;5044993;28;20041;-80
2022/07/11 08:17:56;;;;;;;1.65;0.95;;;;;;;17.42;78.99;102373.56;5043977;28;20057;-77
2022/07/11 08:20:22;;;;;;;1.15;1.00;;;;;;;17.51;78.86;102383.25;5043092;28;20078;-77
2022/07/11 08:22:47;;;;;;;0.80;0.80;;;;;;;17.50;77.64;102390.31;5038046;28;20060;-77
2022/07/11 08:25:13;;;;;;;1.10;0.70;;;;;;;17.56;78.69;102390.75;5036609;28;20025;-77
2022/07/11 08:27:39;;;;;;;2.50;1.00;;;;;;;17.63;78.07;102394.50;5036993;28;20046;-77
2022/07/11 08:30:08;;;;;;;1.25;0.82;;;;;;;17.60;78.29;102390.31;5035480;28;20733;-77
2022/07/11 08:32:37;;;;;;;1.15;0.80;;;;;;;17.61;78.50;102385.94;5040062;28;20037;-77
2022/07/11 08:35:02;;;;;;;1.92;1.20;;;;;;;17.71;79.02;102397.25;5036606;28;20248;-76
2022/07/11 08:37:28;;;;;;;1.90;1.40;;;;;;;17.72;78.77;102391.94;5037995;28;20025;-76
2022/07/11 08:39:53;;;;;;;1.67;1.20;;;;;;;17.73;79.03;102387.50;5035656;28;20474;-77
2022/07/11 08:42:19;;;;;;;2.42;1.40;;;;;;;17.75;79.46;102393.44;5032584;28;20074;-78
2022/07/11 08:44:45;;;;;;;2.63;1.25;;;;;;;17.67;79.18;102386.22;5039149;28;20348;-78
2022/07/11 08:47:11;;;;;;;2.25;1.10;;;;;;;17.59;78.85;102387.84;5038258;28;20054;-76
2022/07/11 08:49:38;;;;;;;3.38;1.30;;;;;;;17.63;79.70;102395.31;5035150;28;20124;-77
2022/07/11 08:52:07;;;;;;;2.50;1.20;;;;;;;17.68;79.76;102387.06;5040110;28;20032;-77
2022/07/11 08:54:32;;;;;;;1.13;1.00;;;;;;;17.58;79.44;102383.56;5038009;28;20380;-76
2022/07/11 08:57:00;;;;;;;2.10;1.20;;;;;;;17.57;79.35;102384.53;5034918;28;20535;-76
2022/07/11 08:59:29;;;;;;;3.38;1.30;;;;;;;17.61;78.64;102391.19;5036791;28;20024;-79
2022/07/11 09:02:02;;;;;;;2.03;1.20;;;;;;;17.61;79.10;102388.56;5039706;28;20500;-77
2022/07/11 09:04:29;;;;;;;1.27;1.10;;;;;;;17.66;78.92;102389.81;5038414;28;20094;-78
2022/07/11 09:06:55;;;;;;;1.85;1.30;;;;;;;17.63;79.63;102399.72;5037427;28;20033;-77
2022/07/11 09:09:20;;;;;;;1.98;1.38;;;;;;;17.73;78.92;102390.13;5034819;28;20064;-77
2022/07/11 09:11:50;;;;;;;2.78;1.40;;;;;;;17.68;79.21;102395.75;5034185;28;20030;-77
2022/07/11 09:14:28;;;;;;;3.03;1.30;;;;;;;17.85;79.49;102394.31;5040571;28;20066;-77
2022/07/11 09:16:54;;;;;;;2.20;1.10;;;;;;;17.96;78.69;102396.81;5041142;28;20487;-77
2022/07/11 09:19:24;;;;;;;1.65;1.23;;;;;;;17.98;78.95;102394.88;5049658;28;20021;-77
2022/07/11 09:27:47;;;;;;;1.50;1.20;;;;;;;18.04;77.62;102388.25;5043370;28;20175;-76
2022/07/11 09:30:17;;;;;;;1.70;1.40;;;;;;;17.95;78.28;102384.66;5045939;28;20039;-77
2022/07/11 09:33:12;;;;;;;3.50;1.52;;;;;;;18.12;78.58;102395.44;5044535;28;20033;-78
2022/07/11 09:35:42;;;;;;;2.17;1.20;;;;;;;18.15;77.43;102395.19;5032886;28;20040;-78
2022/07/11 09:38:10;;;;;;;1.73;1.20;;;;;;;18.03;76.93;102384.81;5041295;28;20072;-77
2022/07/11 09:40:37;;;;;;;1.63;1.30;;;;;;;18.00;76.43;102379.81;5040147;28;20025;-76
2022/07/11 09:43:04;;;;;;;1.05;1.00;;;;;;;18.21;76.87;102373.63;5040024;28;20438;-77
2022/07/11 09:45:33;;;;;;;1.50;1.38;;;;;;;18.25;76.74;102390.78;5042508;28;20078;-77
2022/07/11 09:48:01;;;;;;;1.38;1.00;;;;;;;18.44;76.91;102396.03;5045550;28;20032;-76
2022/07/11 09:50:28;;;;;;;1.20;1.10;;;;;;;18.38;75.12;102393.97;5043744;28;20020;-76
2022/07/11 09:53:04;;;;;;;1.30;1.20;;;;;;;18.47;76.43;102390.53;5050909;28;20143;-77
2022/07/11 09:55:31;;;;;;;1.40;1.25;;;;;;;18.36;74.47;102403.78;5048083;28;20036;-77
2022/07/11 09:57:56;;;;;;;1.65;1.50;;;;;;;18.24;74.18;102395.22;5054162;28;20061;-77
2022/07/11 10:00:23;;;;;;;1.50;1.40;;;;;;;18.26;74.67;102398.53;5052141;28;20083;-77
2022/07/11 10:02:52;;;;;;;1.95;1.42;;;;;;;18.28;74.88;102401.00;5044597;28;20032;-76
2022/07/11 10:05:17;;;;;;;;;;;;;;;18.51;75.73;102397.13;5045104;28;20185;-76
2022/07/11 10:07:43;;;;;;;1.85;1.40;;;;;;;18.49;75.01;102387.75;5058087;28;20356;-78
2022/07/11 10:10:10;;;;;;;2.08;1.40;;;;;;;18.45;74.24;102391.59;5038975;28;20024;-77
2022/07/11 10:12:36;;;;;;;1.35;1.10;;;;;;;18.57;74.99;102391.31;5048268;28;20099;-77
2022/07/11 10:15:04;;;;;;;2.03;1.30;;;;;;;18.64;75.42;102401.28;5045027;28;20021;-76
2022/07/11 10:17:49;;;;;;;2.03;1.33;;;;;;;18.69;75.05;102396.47;5048973;28;20045;-76
2022/07/11 10:20:41;;;;;;;2.65;1.45;;;;;;;18.63;74.87;102383.84;5046254;28;20021;-76
2022/07/11 10:23:21;;;;;;;1.20;1.10;;;;;;;18.74;73.78;102391.63;5033078;28;20529;-76
2022/07/11 10:26:05;;;;;;;1.90;1.17;;;;;;;18.79;74.04;102392.03;5042887;28;20025;-76
2022/07/11 10:28:46;;;;;;;0.80;0.80;;;;;;;18.84;72.87;102393.28;5061365;28;20037;-77
2022/07/11 10:31:23;;;;;;;1.75;0.90;;;;;;;18.95;72.62;102394.91;5056857;28;20042;-76
2022/07/11 10:34:05;;;;;;;2.00;0.80;;;;;;;18.97;72.87;102397.38;5043056;28;20024;-76
2022/07/11 10:36:38;;;;;;;1.17;0.70;;;;;;;18.87;72.48;102402.69;5046902;28;20043;-76
2022/07/11 10:39:24;;;;;;;1.05;0.70;;;;;;;18.98;73.72;102394.66;5031418;28;20025;-77
2022/07/11 10:41:50;;;;;;;1.48;0.90;;;;;;;19.05;74.22;102385.22;5043251;28;20373;-78
2022/07/11 10:44:16;;;;;;;0.80;0.80;;;;;;;19.10;73.27;102404.03;5046381;28;20036;-78
2022/07/11 10:46:42;;;;;;;0.80;0.80;;;;;;;19.03;72.92;102397.66;5035681;28;20120;-72
2022/07/11 10:49:13;;;;;;;1.05;0.90;;;;;;;19.15;73.84;102405.38;5036077;28;20120;-77
2022/07/11 10:51:39;;;;;;;0.80;0.80;;;;;;;19.06;73.37;102402.63;5046880;28;20067;-77
2022/07/11 10:54:41;;;;;;;1.55;0.90;;;;;;;19.13;73.18;102402.06;5045319;28;20437;-77
2022/07/11 10:57:19;;;;;;;1.92;0.90;;;;;;;19.08;74.00;102399.84;5044506;28;20064;-77
2022/07/11 10:59:56;;;;;;;1.17;1.05;;;;;;;19.12;73.28;102405.66;5047505;28;20028;-78
2022/07/11 11:02:22;;;;;;;1.45;1.10;;;;;;;19.02;72.29;102397.81;5037057;28;20580;-77
2022/07/11 11:04:58;;;;;;;1.63;1.00;;;;;;;19.05;73.21;102410.69;5036975;28;20107;-77
2022/07/11 11:07:46;;;;;;;1.40;1.00;;;;;;;19.09;73.84;102399.72;5036318;28;20055;-78
2022/07/11 11:10:17;;;;;;;;;;;;;;;19.27;73.35;102404.25;5052229;28;20496;-77
2022/07/11 11:13:04;;;;;;;1.02;0.90;;;;;;;19.22;72.92;102411.75;5040282;28;19920;-77
2022/07/11 11:15:42;;;;;;;1.33;0.90;;;;;;;19.26;73.21;102406.03;5033659;28;20469;-77
2022/07/11 11:18:23;;;;;;;1.63;1.03;;;;;;;19.34;71.94;102407.97;5045096;28;20033;-77
2022/07/11 11:21:07;;;;;;;0.80;0.80;;;;;;;19.41;72.34;102403.78;5036271;28;20033;-77
2022/07/11 11:24:02;;;;;;;1.20;0.90;;;;;;;19.49;74.12;102387.25;5026558;28;20126;-77
2022/07/11 11:26:50;;;;;;;0.90;0.90;;;;;;;19.48;72.79;102407.47;5039754;28;20162;-77
2022/07/11 11:29:28;;;;;;;1.00;0.73;;;;;;;19.37;72.73;102397.13;5044719;28;20357;-78
2022/07/11 11:31:55;;;;;;;;;;;;;;;19.63;72.58;102411.31;5046090;28;20512;-77
2022/07/11 11:34:21;;;;;;;1.30;0.90;;;;;;;19.48;72.12;102404.84;5046875;28;19927;-78
2022/07/11 11:36:54;;;;;;;1.38;0.90;;;;;;;19.55;72.39;102403.28;5042335;28;20120;-78